Ikan Bagat — 3EYX8 — position and weather

sailwx.info

Track history (hours):
 
Tides and Currents Weather Stations Pressure Air Temp Water Temp Dewpoint Dewpoint Depression Visibility Wind Speed Wind Dir Waves Ship Positions

Ikan Bagat

Last reported at 2017-Apr-05 20:00 UTC. Time now 2017-Apr-24 15:19 UTC.
Position S 30°57' E 034°54'.
Warning: this ship's position is 18 days out of date.

Length 229 m; draft 7.2 m.

Type: Ship. MMSI: 354375000.

Date/timePositionNaut miles runAvg speedWind from/ knotsBaromVisibWave heightAir tempDewpointWater temp
2017-Apr-05 20:00S 30°57' E 034°54'1110.6
2017-Apr-05 19:00S 30°53' E 035°05'1710.9
2017-Apr-05 17:28S 30°45' E 035°22'2411.3
2017-Apr-05 15:21S 30°36' E 035°47'411.5
2017-Apr-05 15:00S 30°34' E 035°52'1311.7
2017-Apr-05 13:56S 30°28' E 036°04'711.9
2017-Apr-05 13:19S 30°24' E 036°12'411.9
2017-Apr-05 13:00S 30°23' E 036°16'  
2017-Mar-31 21:59S 20°24' E 058°29'612.0
2017-Mar-31 21:29S 20°19' E 058°33'612.1
2017-Mar-31 20:59S 20°14' E 058°37'612.0
2017-Mar-31 20:29S 20°10' E 058°41'612.1
2017-Mar-31 19:57S 20°05' E 058°45'812.1
2017-Mar-31 19:19S 19°59' E 058°50'512.1
2017-Mar-31 18:56S 19°55' E 058°53'612.1
2017-Mar-31 18:28S 19°51' E 058°57'612.2
2017-Mar-31 17:59S 19°46' E 059°01'612.3
2017-Mar-31 17:30S 19°41' E 059°04'712.2
2017-Mar-31 16:58S 19°36' E 059°09'612.2
2017-Mar-31 16:30S 19°31' E 059°12'  
Track history (hours):
 
Tides and Currents Weather Stations Pressure Air Temp Water Temp Dewpoint Dewpoint Depression Visibility Wind Speed Wind Dir Waves Ship Positions

Ikan Bagat

Last reported at 2017-Apr-05 20:00 UTC. Time now 2017-Apr-24 15:19 UTC.
Position S 30°57' E 034°54'.
Warning: this ship's position is 18 days out of date.

Length 229 m; draft 7.2 m.

Type: Ship. MMSI: 354375000.

Date/timePositionNaut miles runAvg speedWind from/ knotsBaromVisibWave heightAir tempDewpointWater temp
2017-Apr-05 20:00S 30°57' E 034°54'1110.6
2017-Apr-05 19:00S 30°53' E 035°05'1710.9
2017-Apr-05 17:28S 30°45' E 035°22'2411.3
2017-Apr-05 15:21S 30°36' E 035°47'411.5
2017-Apr-05 15:00S 30°34' E 035°52'1311.7
2017-Apr-05 13:56S 30°28' E 036°04'711.9
2017-Apr-05 13:19S 30°24' E 036°12'411.9
2017-Apr-05 13:00S 30°23' E 036°16'  
2017-Mar-31 21:59S 20°24' E 058°29'612.0
2017-Mar-31 21:29S 20°19' E 058°33'612.1
2017-Mar-31 20:59S 20°14' E 058°37'612.0
2017-Mar-31 20:29S 20°10' E 058°41'612.1
2017-Mar-31 19:57S 20°05' E 058°45'812.1
2017-Mar-31 19:19S 19°59' E 058°50'512.1
2017-Mar-31 18:56S 19°55' E 058°53'612.1
2017-Mar-31 18:28S 19°51' E 058°57'612.2
2017-Mar-31 17:59S 19°46' E 059°01'612.3
2017-Mar-31 17:30S 19°41' E 059°04'712.2
2017-Mar-31 16:58S 19°36' E 059°09'612.2
2017-Mar-31 16:30S 19°31' E 059°12'  

Dump ship's entire track history